createdAt,value
2022-12-22T00:02:30.538Z,4.43
2022-12-22T00:05:16.578Z,4.00
2022-12-22T00:08:03.556Z,5.00
2022-12-22T00:10:48.930Z,5.07
2022-12-22T00:13:35.090Z,4.90
2022-12-22T00:16:20.039Z,4.90
2022-12-22T00:19:05.221Z,4.60
2022-12-22T00:21:50.307Z,4.87
2022-12-22T00:24:36.892Z,4.80
2022-12-22T00:27:22.095Z,4.83
2022-12-22T00:30:07.110Z,4.23
2022-12-22T00:32:53.985Z,4.53
2022-12-22T00:35:41.229Z,4.63
2022-12-22T00:38:32.347Z,4.80
2022-12-22T00:41:18.653Z,4.93
2022-12-22T00:44:03.998Z,5.07
2022-12-22T00:46:49.705Z,5.63
2022-12-22T00:49:34.954Z,4.67
2022-12-22T00:52:20.479Z,5.33
2022-12-22T00:55:05.393Z,5.10
2022-12-22T00:57:51.807Z,5.40
2022-12-22T01:00:38.318Z,4.93
2022-12-22T01:03:23.762Z,4.37
2022-12-22T01:06:09.181Z,3.90
2022-12-22T01:08:54.556Z,4.00
2022-12-22T01:11:39.946Z,3.47
2022-12-22T01:14:29.093Z,3.40
2022-12-22T01:17:14.194Z,3.13
2022-12-22T01:19:59.612Z,3.47
2022-12-22T01:22:45.605Z,3.50
2022-12-22T01:25:32.814Z,3.27
2022-12-22T01:28:18.549Z,3.77
2022-12-22T01:31:04.915Z,3.77
2022-12-22T01:33:50.690Z,3.60
2022-12-22T01:36:36.174Z,3.70
2022-12-22T01:39:21.349Z,3.73
2022-12-22T01:42:07.269Z,3.90
2022-12-22T01:44:52.434Z,3.87
2022-12-22T01:48:00.185Z,3.70
2022-12-22T01:50:48.157Z,3.70
2022-12-22T01:53:37.457Z,3.53
2022-12-22T01:56:22.814Z,3.50
2022-12-22T01:59:10.677Z,3.90
2022-12-22T02:01:55.815Z,4.20
2022-12-22T02:04:45.568Z,4.03
2022-12-22T02:07:40.679Z,4.27
2022-12-22T02:10:37.708Z,4.07
2022-12-22T02:13:33.925Z,4.10
2022-12-22T02:16:27.412Z,4.10
2022-12-22T02:19:16.251Z,4.80
2022-12-22T02:22:13.463Z,4.67
2022-12-22T02:25:02.975Z,4.57
2022-12-22T02:27:53.043Z,4.73
2022-12-22T02:30:38.574Z,4.20
2022-12-22T02:33:25.386Z,5.03
2022-12-22T02:36:17.801Z,5.00
2022-12-22T02:39:08.252Z,4.20
2022-12-22T02:42:02.918Z,4.47
2022-12-22T02:44:57.224Z,4.00
2022-12-22T02:47:48.179Z,4.20
2022-12-22T02:50:38.262Z,3.60
2022-12-22T02:53:24.557Z,3.57
2022-12-22T02:56:16.500Z,4.07
2022-12-22T02:59:02.210Z,3.23
2022-12-22T03:01:49.319Z,3.57
2022-12-22T03:04:34.472Z,4.13
2022-12-22T03:07:20.465Z,3.87
2022-12-22T03:10:05.636Z,4.20
2022-12-22T03:12:50.854Z,4.10
2022-12-22T03:15:35.908Z,4.50
2022-12-22T03:18:23.903Z,3.70
2022-12-22T03:21:09.805Z,4.00
2022-12-22T03:23:55.201Z,3.30
2022-12-22T03:26:23.001Z,3.50
2022-12-22T03:28:50.696Z,2.90
2022-12-22T03:31:18.725Z,3.10
2022-12-22T03:33:47.775Z,2.63
2022-12-22T03:36:15.274Z,2.40
2022-12-22T03:38:42.878Z,2.33
2022-12-22T03:41:30.922Z,2.50
2022-12-22T03:44:18.321Z,2.27
2022-12-22T03:46:45.914Z,2.57
2022-12-22T03:49:16.203Z,2.37
2022-12-22T03:51:47.712Z,2.60
2022-12-22T03:54:17.158Z,2.80
2022-12-22T03:56:45.282Z,2.63
2022-12-22T03:59:13.224Z,2.80
2022-12-22T04:01:42.806Z,2.93
2022-12-22T04:04:11.122Z,2.90
2022-12-22T04:06:40.343Z,3.40
2022-12-22T04:09:08.474Z,3.00
2022-12-22T04:11:54.086Z,3.10
2022-12-22T04:14:21.898Z,3.20
2022-12-22T04:16:49.601Z,3.07
2022-12-22T04:19:17.348Z,3.03
2022-12-22T04:21:46.252Z,3.10
2022-12-22T04:24:14.224Z,3.27
2022-12-22T04:26:41.794Z,3.30
2022-12-22T04:29:09.369Z,3.43
2022-12-22T04:31:37.209Z,3.17
2022-12-22T04:34:05.121Z,3.50
2022-12-22T04:36:34.909Z,2.70
2022-12-22T04:39:04.212Z,3.00
2022-12-22T04:41:31.969Z,2.23
2022-12-22T04:43:59.744Z,2.70
2022-12-22T04:46:27.550Z,2.67
2022-12-22T04:49:00.347Z,3.00
2022-12-22T04:51:28.395Z,3.00
2022-12-22T04:53:57.505Z,3.10
2022-12-22T04:56:26.730Z,3.00
2022-12-22T04:58:54.365Z,2.97
2022-12-22T05:01:22.203Z,3.07
2022-12-22T05:03:50.183Z,3.27
2022-12-22T05:06:17.757Z,3.10
2022-12-22T05:08:45.425Z,2.90
2022-12-22T05:11:13.200Z,3.03
2022-12-22T05:13:42.045Z,2.87
2022-12-22T05:16:11.480Z,2.90
2022-12-22T05:18:41.524Z,2.43
2022-12-22T05:21:13.389Z,2.70
2022-12-22T05:23:41.108Z,2.27
2022-12-22T05:26:09.601Z,2.20
2022-12-22T05:28:37.422Z,2.30
2022-12-22T05:31:08.586Z,2.43
2022-12-22T05:33:36.585Z,1.83
2022-12-22T05:36:04.813Z,1.90
2022-12-22T05:38:32.647Z,1.90
2022-12-22T05:41:04.286Z,2.20
2022-12-22T05:43:32.611Z,2.37
2022-12-22T05:46:02.846Z,2.30
2022-12-22T05:48:37.900Z,2.20
2022-12-22T05:51:06.803Z,3.27
2022-12-22T05:53:34.624Z,4.00
2022-12-22T05:56:02.165Z,5.40
2022-12-22T05:58:29.949Z,5.00
2022-12-22T06:00:58.978Z,5.03
2022-12-22T06:03:27.057Z,5.50
2022-12-22T06:05:56.401Z,5.13
2022-12-22T06:08:24.210Z,5.20
2022-12-22T06:10:52.403Z,5.43
2022-12-22T06:13:19.937Z,5.53
2022-12-22T06:15:49.201Z,4.57
2022-12-22T06:18:16.972Z,4.50
2022-12-22T06:20:46.349Z,3.10
2022-12-22T06:23:15.255Z,2.40
2022-12-22T06:25:45.203Z,2.00
2022-12-22T06:28:12.769Z,2.03
2022-12-22T06:30:40.730Z,1.90
2022-12-22T06:33:08.381Z,2.10
2022-12-22T06:35:37.882Z,2.10
2022-12-22T06:38:07.698Z,2.83
2022-12-22T06:40:36.687Z,3.50
2022-12-22T06:43:10.082Z,2.20
2022-12-22T06:45:39.420Z,2.70
2022-12-22T06:48:07.734Z,2.20
2022-12-22T06:50:35.875Z,2.70
2022-12-22T06:53:03.822Z,2.10
2022-12-22T06:55:31.698Z,3.87
2022-12-22T06:58:00.684Z,2.00
2022-12-22T07:00:28.335Z,2.20
2022-12-22T07:02:56.209Z,1.90
2022-12-22T07:05:25.686Z,2.10
2022-12-22T07:07:54.087Z,1.80
2022-12-22T07:10:42.027Z,1.77
2022-12-22T07:13:20.498Z,1.90
2022-12-22T07:15:55.278Z,2.10
2022-12-22T07:18:27.079Z,2.00
2022-12-22T07:20:55.468Z,2.20
2022-12-22T07:23:23.015Z,2.00
2022-12-22T07:25:50.605Z,2.33
2022-12-22T07:28:21.309Z,2.23
2022-12-22T07:30:50.444Z,2.17
2022-12-22T07:33:18.538Z,2.30
2022-12-22T07:35:46.307Z,2.33
2022-12-22T07:38:14.438Z,2.13
2022-12-22T07:40:43.593Z,2.30
2022-12-22T07:43:11.523Z,2.40
2022-12-22T07:45:40.409Z,2.03
2022-12-22T07:48:28.269Z,2.43
2022-12-22T07:50:56.140Z,3.90
2022-12-22T07:53:23.803Z,3.57
2022-12-22T07:55:51.339Z,8.67
2022-12-22T07:58:18.927Z,7.70
2022-12-22T08:00:48.282Z,3.97
2022-12-22T08:03:18.495Z,4.30
2022-12-22T08:05:46.195Z,4.30
2022-12-22T08:08:13.859Z,5.73
2022-12-22T08:10:41.410Z,4.87
2022-12-22T08:13:09.028Z,5.50
2022-12-22T08:15:38.041Z,5.73
2022-12-22T08:18:07.262Z,5.83
2022-12-22T08:20:36.364Z,5.23
2022-12-22T08:23:04.031Z,6.07
2022-12-22T08:25:32.206Z,5.60
2022-12-22T08:28:00.153Z,5.37
2022-12-22T08:30:29.237Z,7.90
2022-12-22T08:32:57.192Z,9.67
2022-12-22T08:35:26.422Z,8.40
2022-12-22T08:37:54.462Z,7.40
2022-12-22T08:40:24.511Z,10.53
2022-12-22T08:42:54.323Z,8.20
2022-12-22T08:45:21.930Z,5.10
2022-12-22T08:47:49.628Z,6.53
2022-12-22T08:50:17.535Z,6.20
2022-12-22T08:52:46.603Z,5.93
2022-12-22T08:55:14.412Z,6.03
2022-12-22T08:57:42.019Z,6.13
2022-12-22T09:00:13.306Z,8.23
2022-12-22T09:02:41.123Z,9.50
2022-12-22T09:05:09.767Z,11.77
2022-12-22T09:07:37.364Z,11.00
2022-12-22T09:10:07.269Z,10.30
2022-12-22T09:12:35.542Z,8.43
2022-12-22T09:15:03.088Z,8.27
2022-12-22T09:17:30.553Z,8.67
2022-12-22T09:19:58.077Z,8.97
2022-12-22T09:22:28.546Z,8.33
2022-12-22T09:24:56.522Z,10.60
2022-12-22T09:27:25.461Z,8.40
2022-12-22T09:29:52.946Z,8.27
2022-12-22T09:32:20.475Z,9.03
2022-12-22T09:34:48.693Z,8.10
2022-12-22T09:37:16.437Z,9.13
2022-12-22T09:39:43.940Z,7.43
2022-12-22T09:42:13.852Z,7.20
2022-12-22T09:44:45.680Z,7.47
2022-12-22T09:47:19.123Z,8.17
2022-12-22T09:49:46.842Z,7.70
2022-12-22T09:52:24.078Z,7.57
2022-12-22T09:54:52.155Z,7.67
2022-12-22T09:57:20.350Z,7.10
2022-12-22T09:59:49.566Z,7.47
2022-12-22T10:02:27.038Z,6.47
2022-12-22T10:05:04.637Z,5.60
2022-12-22T10:07:34.242Z,4.87
2022-12-22T10:10:07.404Z,4.67
2022-12-22T10:12:34.922Z,5.60
2022-12-22T10:15:03.952Z,5.13
2022-12-22T10:17:32.890Z,5.17
2022-12-22T10:20:22.339Z,5.20
2022-12-22T10:22:51.472Z,5.73
2022-12-22T10:25:35.797Z,5.90
2022-12-22T10:28:20.946Z,5.87
2022-12-22T10:30:49.747Z,6.63
2022-12-22T10:33:19.869Z,6.63
2022-12-22T10:35:50.700Z,7.40
2022-12-22T10:38:26.605Z,6.40
2022-12-22T10:41:01.832Z,7.23
2022-12-22T10:43:33.162Z,7.00
2022-12-22T10:46:03.268Z,7.90
2022-12-22T10:48:32.290Z,8.27
2022-12-22T10:51:00.734Z,7.13
2022-12-22T10:53:47.858Z,6.97
2022-12-22T10:56:22.284Z,7.63
2022-12-22T10:58:51.939Z,8.20
2022-12-22T11:01:30.652Z,8.57
2022-12-22T11:03:59.501Z,7.40
2022-12-22T11:06:27.048Z,7.80
2022-12-22T11:09:05.648Z,7.93
2022-12-22T11:11:47.958Z,7.90
2022-12-22T11:14:24.774Z,7.57
2022-12-22T11:16:57.663Z,7.70
2022-12-22T11:19:38.096Z,8.30
2022-12-22T11:22:12.110Z,7.67
2022-12-22T11:24:45.003Z,9.00
2022-12-22T11:27:27.788Z,8.93
2022-12-22T11:30:09.198Z,9.50
2022-12-22T11:32:52.363Z,8.33
2022-12-22T11:35:27.887Z,9.20
2022-12-22T11:38:01.598Z,9.57
2022-12-22T11:40:33.308Z,9.53
2022-12-22T11:43:14.044Z,9.43
2022-12-22T11:45:48.537Z,9.63
2022-12-22T11:48:52.280Z,9.70
2022-12-22T11:51:28.605Z,9.70
2022-12-22T11:54:16.239Z,11.00
2022-12-22T11:56:45.655Z,10.10
2022-12-22T11:59:30.989Z,10.20
2022-12-22T12:02:33.966Z,9.80
2022-12-22T12:05:16.529Z,10.33
2022-12-22T12:07:46.642Z,9.43
2022-12-22T12:10:18.135Z,9.57
2022-12-22T12:12:52.731Z,10.27
2022-12-22T12:15:28.795Z,10.23
2022-12-22T12:18:12.484Z,10.00
2022-12-22T12:20:47.290Z,10.90
2022-12-22T12:23:23.924Z,11.10
2022-12-22T12:25:58.560Z,10.63
2022-12-22T12:28:35.707Z,10.87
2022-12-22T12:31:05.703Z,9.00
2022-12-22T12:33:38.018Z,10.03
2022-12-22T12:36:14.119Z,10.63
2022-12-22T12:41:41.003Z,11.33
2022-12-22T12:44:16.181Z,10.17
2022-12-22T12:46:56.903Z,10.30
2022-12-22T12:49:53.356Z,10.73
2022-12-22T12:53:16.444Z,10.30
2022-12-22T12:56:03.075Z,9.27
2022-12-22T12:58:54.680Z,10.00
2022-12-22T13:01:55.769Z,9.80
2022-12-22T13:05:10.453Z,11.43
2022-12-22T13:08:06.657Z,9.07
2022-12-22T13:10:35.644Z,10.70
2022-12-22T13:13:04.740Z,10.13
2022-12-22T13:15:34.002Z,10.60
2022-12-22T13:18:03.032Z,10.57
2022-12-22T13:20:32.685Z,11.00
2022-12-22T13:23:01.758Z,10.70
2022-12-22T13:25:41.461Z,11.47
2022-12-22T13:28:15.995Z,10.73
2022-12-22T13:30:47.222Z,9.80
2022-12-22T13:33:17.189Z,10.60
2022-12-22T13:35:48.521Z,10.47
2022-12-22T13:38:30.465Z,11.27
2022-12-22T13:40:58.948Z,10.23
2022-12-22T13:43:28.731Z,10.87
2022-12-22T13:45:57.271Z,10.63
2022-12-22T13:48:27.013Z,11.07
2022-12-22T13:50:56.671Z,10.80
2022-12-22T13:54:06.547Z,10.70
2022-12-22T13:56:18.589Z,10.60
2022-12-22T13:58:48.185Z,11.10
2022-12-22T14:01:18.589Z,10.33
2022-12-22T14:04:04.641Z,10.30
2022-12-22T14:06:34.043Z,10.73
2022-12-22T14:09:12.520Z,10.30
2022-12-22T14:11:44.093Z,9.83
2022-12-22T14:14:19.644Z,10.30
2022-12-22T14:16:49.476Z,11.07
2022-12-22T14:19:17.845Z,9.40
2022-12-22T14:21:47.427Z,9.57
2022-12-22T14:24:18.029Z,10.53
2022-12-22T14:26:45.861Z,10.07
2022-12-22T14:29:16.681Z,11.30
2022-12-22T14:31:55.350Z,11.40
2022-12-22T14:34:27.465Z,11.17
2022-12-22T14:36:54.963Z,11.00
2022-12-22T14:39:24.694Z,11.07
2022-12-22T14:41:54.208Z,10.97
2022-12-22T14:44:24.511Z,10.87
2022-12-22T14:47:15.897Z,10.67
2022-12-22T14:49:46.229Z,11.07
2022-12-22T14:52:21.221Z,10.23
2022-12-22T14:54:50.006Z,10.30
2022-12-22T14:57:21.494Z,10.83
2022-12-22T15:00:01.184Z,11.27
2022-12-22T15:02:38.330Z,9.73
2022-12-22T15:05:13.031Z,11.60
2022-12-22T15:10:39.804Z,10.77
2022-12-22T15:13:08.673Z,11.97
2022-12-22T15:15:37.541Z,12.83
2022-12-22T15:18:05.156Z,10.80
2022-12-22T15:20:38.967Z,10.23
2022-12-22T15:23:11.540Z,10.73
2022-12-22T15:25:39.035Z,10.33
2022-12-22T15:28:06.547Z,10.60
2022-12-22T15:30:34.124Z,10.70
2022-12-22T15:33:03.282Z,9.80
2022-12-22T15:35:32.551Z,10.13
2022-12-22T15:38:00.660Z,10.50
2022-12-22T15:40:29.311Z,10.93
2022-12-22T15:42:56.894Z,10.17
2022-12-22T15:45:24.524Z,9.30
2022-12-22T15:47:53.708Z,10.87
2022-12-22T15:50:28.581Z,10.10
2022-12-22T15:52:58.908Z,10.27
2022-12-22T15:55:26.984Z,10.60
2022-12-22T15:57:58.068Z,11.30
2022-12-22T16:00:26.096Z,11.47
2022-12-22T16:02:53.782Z,13.17
2022-12-22T16:05:22.998Z,12.73
2022-12-22T16:07:50.509Z,13.67
2022-12-22T16:10:24.398Z,14.17
2022-12-22T16:12:59.835Z,14.53
2022-12-22T16:15:28.271Z,15.60
2022-12-22T16:17:55.809Z,16.63
2022-12-22T16:20:25.155Z,16.33
2022-12-22T16:22:52.928Z,16.10
2022-12-22T16:25:23.974Z,15.93
2022-12-22T16:27:51.541Z,16.00
2022-12-22T16:30:22.128Z,17.43
2022-12-22T16:32:49.874Z,16.17
2022-12-22T16:35:19.560Z,16.80
2022-12-22T16:37:49.837Z,16.70
2022-12-22T16:40:18.062Z,16.30
2022-12-22T16:45:37.205Z,16.20
2022-12-22T16:48:07.556Z,16.67
2022-12-22T16:50:35.080Z,17.93
2022-12-22T16:53:05.496Z,18.20
2022-12-22T16:55:33.362Z,17.53
2022-12-22T16:58:00.865Z,17.63
2022-12-22T17:00:30.749Z,17.10
2022-12-22T17:03:00.357Z,17.07
2022-12-22T17:05:30.735Z,17.87
2022-12-22T17:07:59.451Z,17.57
2022-12-22T17:10:28.276Z,18.00
2022-12-22T17:12:56.976Z,18.40
2022-12-22T17:15:24.942Z,19.40
2022-12-22T17:17:53.238Z,17.63
2022-12-22T17:20:22.810Z,18.73
2022-12-22T17:22:52.602Z,18.30
2022-12-22T17:25:22.152Z,18.47
2022-12-22T17:27:51.372Z,19.87
2022-12-22T17:30:21.214Z,18.13
2022-12-22T17:32:49.753Z,18.77
2022-12-22T17:35:18.901Z,18.43
2022-12-22T17:37:47.259Z,19.10
2022-12-22T17:40:22.882Z,18.67
2022-12-22T17:42:52.001Z,18.47
2022-12-22T17:45:20.017Z,18.93
2022-12-22T17:47:48.018Z,17.43
2022-12-22T17:50:17.165Z,19.60
2022-12-22T17:52:45.372Z,17.87
2022-12-22T17:55:49.842Z,18.77
2022-12-22T17:58:11.358Z,19.30
2022-12-22T18:00:38.880Z,17.07
2022-12-22T18:03:06.531Z,17.20
2022-12-22T18:05:40.462Z,17.07
2022-12-22T18:08:12.471Z,17.57
2022-12-22T18:10:41.209Z,18.00
2022-12-22T18:13:15.315Z,17.40
2022-12-22T18:15:42.883Z,17.70
2022-12-22T18:18:13.768Z,15.50
2022-12-22T18:20:44.189Z,15.70
2022-12-22T18:23:17.243Z,15.57
2022-12-22T18:25:45.237Z,16.70
2022-12-22T18:28:15.769Z,16.73
2022-12-22T18:30:43.543Z,15.77
2022-12-22T18:33:11.109Z,16.63
2022-12-22T18:35:39.035Z,16.93
2022-12-22T18:38:07.149Z,15.93
2022-12-22T18:40:37.138Z,15.27
2022-12-22T18:43:07.507Z,15.83
2022-12-22T18:45:37.497Z,15.43
2022-12-22T18:48:05.265Z,14.80
2022-12-22T18:50:33.796Z,14.77
2022-12-22T18:53:04.232Z,15.40
2022-12-22T18:55:33.655Z,14.03
2022-12-22T18:58:01.438Z,13.47
2022-12-22T19:00:30.350Z,14.97
2022-12-22T19:03:01.015Z,13.73
2022-12-22T19:05:30.668Z,13.50
2022-12-22T19:07:59.132Z,12.20
2022-12-22T19:10:30.292Z,13.20
2022-12-22T19:12:58.674Z,12.20
2022-12-22T19:15:29.907Z,12.73
2022-12-22T19:17:59.398Z,13.13
2022-12-22T19:20:27.311Z,11.53
2022-12-22T19:22:55.277Z,12.00
2022-12-22T19:25:24.595Z,12.23
2022-12-22T19:27:53.857Z,12.20
2022-12-22T19:30:24.219Z,11.17
2022-12-22T19:32:56.180Z,11.97
2022-12-22T19:35:25.663Z,11.57
2022-12-22T19:37:54.583Z,12.00
2022-12-22T19:40:24.731Z,11.47
2022-12-22T19:42:55.036Z,10.73
2022-12-22T19:45:25.857Z,11.37
2022-12-22T19:47:54.239Z,12.10
2022-12-22T19:50:24.228Z,10.50
2022-12-22T19:52:53.497Z,11.60
2022-12-22T19:55:21.637Z,10.50
2022-12-22T19:57:50.972Z,10.60
2022-12-22T20:00:20.260Z,10.53
2022-12-22T20:02:49.727Z,10.63
2022-12-22T20:05:32.724Z,10.67
2022-12-22T20:08:02.811Z,9.77
2022-12-22T20:10:32.207Z,9.30
2022-12-22T20:13:03.089Z,8.47
2022-12-22T20:15:32.713Z,8.50
2022-12-22T20:18:00.295Z,7.63
2022-12-22T20:20:33.475Z,8.27
2022-12-22T20:23:04.689Z,7.40
2022-12-22T20:25:37.388Z,6.80
2022-12-22T20:28:10.035Z,6.87
2022-12-22T20:30:37.837Z,6.43
2022-12-22T20:33:05.466Z,7.00
2022-12-22T20:35:32.964Z,6.07
2022-12-22T20:38:01.830Z,7.23
2022-12-22T20:40:32.240Z,6.13
2022-12-22T20:42:59.856Z,6.60
2022-12-22T20:45:28.817Z,7.10
2022-12-22T20:47:56.626Z,7.33
2022-12-22T20:50:26.411Z,7.20
2022-12-22T20:52:54.759Z,7.07
2022-12-22T20:55:26.281Z,7.07
2022-12-22T20:57:54.145Z,6.50
2022-12-22T21:00:23.555Z,7.73
2022-12-22T21:02:51.455Z,6.50
2022-12-22T21:05:20.907Z,6.77
2022-12-22T21:07:50.329Z,7.67
2022-12-22T21:10:19.560Z,7.40
2022-12-22T21:12:48.637Z,7.33
2022-12-22T21:15:20.825Z,8.20
2022-12-22T21:17:56.013Z,7.43
2022-12-22T21:20:27.819Z,7.40
2022-12-22T21:22:55.317Z,6.20
2022-12-22T21:25:23.102Z,6.30
2022-12-22T21:27:52.677Z,5.90
2022-12-22T21:30:21.963Z,6.37
2022-12-22T21:32:50.052Z,5.90
2022-12-22T21:35:18.927Z,5.50
2022-12-22T21:37:47.681Z,5.30
2022-12-22T21:40:20.521Z,5.37
2022-12-22T21:42:48.241Z,4.17
2022-12-22T21:45:19.038Z,4.20
2022-12-22T21:47:46.660Z,4.50
2022-12-22T21:50:20.947Z,4.30
2022-12-22T21:52:51.675Z,4.50
2022-12-22T21:55:20.616Z,5.07
2022-12-22T21:57:48.520Z,5.30
2022-12-22T22:00:19.110Z,6.17
2022-12-22T22:02:47.382Z,5.80
2022-12-22T22:05:23.449Z,6.43
2022-12-22T22:07:51.600Z,6.10
2022-12-22T22:10:19.713Z,5.70
2022-12-22T22:12:47.456Z,5.57
2022-12-22T22:15:16.692Z,5.70
2022-12-22T22:17:44.684Z,5.27
2022-12-22T22:20:15.257Z,4.73
2022-12-22T22:22:43.014Z,5.00
2022-12-22T22:25:11.580Z,5.20
2022-12-22T22:27:44.278Z,4.10
2022-12-22T22:30:18.261Z,4.30
2022-12-22T22:32:46.021Z,4.20
2022-12-22T22:35:13.855Z,3.70
2022-12-22T22:37:41.615Z,3.60
2022-12-22T22:40:11.568Z,3.40
2022-12-22T22:42:39.381Z,3.07
2022-12-22T22:45:08.279Z,3.80
2022-12-22T22:47:38.455Z,3.70
2022-12-22T22:50:08.739Z,3.90
2022-12-22T22:52:36.986Z,4.40
2022-12-22T22:55:04.833Z,4.03
2022-12-22T22:57:32.354Z,3.87
2022-12-22T22:59:59.862Z,3.90
2022-12-22T23:02:27.610Z,3.83
2022-12-22T23:04:56.544Z,3.43
2022-12-22T23:07:24.108Z,3.67
2022-12-22T23:09:51.563Z,3.87
2022-12-22T23:12:19.118Z,3.80
2022-12-22T23:14:46.866Z,4.50
2022-12-22T23:17:14.361Z,4.27
2022-12-22T23:19:41.913Z,4.20
2022-12-22T23:22:10.776Z,3.70
2022-12-22T23:24:38.299Z,4.17
2022-12-22T23:27:05.860Z,4.63
2022-12-22T23:29:33.424Z,4.63
2022-12-22T23:32:01.060Z,5.03
2022-12-22T23:34:28.728Z,5.60
2022-12-22T23:36:56.375Z,5.40
2022-12-22T23:39:25.372Z,5.50
2022-12-22T23:41:52.915Z,5.37
2022-12-22T23:44:20.460Z,5.67
2022-12-22T23:46:48.034Z,6.20
2022-12-22T23:49:15.776Z,6.03
2022-12-22T23:51:43.271Z,5.13
2022-12-22T23:54:10.764Z,6.00
2022-12-22T23:56:39.539Z,5.70
2022-12-22T23:59:07.036Z,6.27
